sensor_id;sensor_type;location;lat;lon;timestamp;P1;durP1;ratioP1;P2;durP2;ratioP2
22378;SDS011;11357;49.990;7.370;2022-09-17T00:01:57;58.60;;;22.77;;
22378;SDS011;11357;49.990;7.370;2022-09-17T00:04:22;63.73;;;29.90;;
22378;SDS011;11357;49.990;7.370;2022-09-17T00:06:48;81.90;;;28.10;;
22378;SDS011;11357;49.990;7.370;2022-09-17T00:09:14;81.67;;;35.23;;
22378;SDS011;11357;49.990;7.370;2022-09-17T00:11:41;62.13;;;23.43;;
22378;SDS011;11357;49.990;7.370;2022-09-17T00:14:08;64.43;;;24.43;;
22378;SDS011;11357;49.990;7.370;2022-09-17T00:16:40;57.47;;;23.70;;
22378;SDS011;11357;49.990;7.370;2022-09-17T00:19:11;60.27;;;22.20;;
22378;SDS011;11357;49.990;7.370;2022-09-17T00:21:39;65.23;;;32.43;;
22378;SDS011;11357;49.990;7.370;2022-09-17T00:24:05;66.40;;;31.67;;
22378;SDS011;11357;49.990;7.370;2022-09-17T00:26:32;64.77;;;26.20;;
22378;SDS011;11357;49.990;7.370;2022-09-17T00:28:59;64.27;;;30.03;;
22378;SDS011;11357;49.990;7.370;2022-09-17T00:31:25;64.13;;;28.97;;
22378;SDS011;11357;49.990;7.370;2022-09-17T00:33:52;63.60;;;28.73;;
22378;SDS011;11357;49.990;7.370;2022-09-17T00:36:18;59.03;;;21.73;;
22378;SDS011;11357;49.990;7.370;2022-09-17T00:38:47;88.53;;;35.13;;
22378;SDS011;11357;49.990;7.370;2022-09-17T00:41:17;73.27;;;29.83;;
22378;SDS011;11357;49.990;7.370;2022-09-17T00:43:53;71.93;;;26.70;;
22378;SDS011;11357;49.990;7.370;2022-09-17T00:46:23;73.87;;;29.07;;
22378;SDS011;11357;49.990;7.370;2022-09-17T00:49:20;65.57;;;28.63;;
22378;SDS011;11357;49.990;7.370;2022-09-17T00:54:28;58.97;;;26.07;;
22378;SDS011;11357;49.990;7.370;2022-09-17T00:56:55;62.57;;;26.17;;
22378;SDS011;11357;49.990;7.370;2022-09-17T00:59:21;64.63;;;27.60;;
22378;SDS011;11357;49.990;7.370;2022-09-17T01:01:47;66.03;;;28.00;;
22378;SDS011;11357;49.990;7.370;2022-09-17T01:04:21;61.43;;;24.97;;
22378;SDS011;11357;49.990;7.370;2022-09-17T01:12:41;68.70;;;30.33;;
22378;SDS011;11357;49.990;7.370;2022-09-17T01:16:12;67.30;;;26.47;;
22378;SDS011;11357;49.990;7.370;2022-09-17T01:21:17;66.07;;;26.60;;
22378;SDS011;11357;49.990;7.370;2022-09-17T01:26:54;75.23;;;30.40;;
22378;SDS011;11357;49.990;7.370;2022-09-17T01:34:46;68.13;;;27.57;;
22378;SDS011;11357;49.990;7.370;2022-09-17T01:37:34;65.00;;;32.60;;
22378;SDS011;11357;49.990;7.370;2022-09-17T01:40:17;60.70;;;20.70;;
22378;SDS011;11357;49.990;7.370;2022-09-17T01:43:03;64.77;;;25.00;;
22378;SDS011;11357;49.990;7.370;2022-09-17T01:45:48;65.40;;;26.77;;
22378;SDS011;11357;49.990;7.370;2022-09-17T01:53:57;60.40;;;25.33;;
22378;SDS011;11357;49.990;7.370;2022-09-17T01:56:46;77.83;;;31.03;;
22378;SDS011;11357;49.990;7.370;2022-09-17T01:59:17;67.63;;;27.20;;
22378;SDS011;11357;49.990;7.370;2022-09-17T02:01:52;68.43;;;27.93;;
22378;SDS011;11357;49.990;7.370;2022-09-17T02:04:25;78.17;;;28.07;;
22378;SDS011;11357;49.990;7.370;2022-09-17T02:06:59;79.73;;;37.13;;
22378;SDS011;11357;49.990;7.370;2022-09-17T02:09:35;118.60;;;50.27;;
22378;SDS011;11357;49.990;7.370;2022-09-17T02:12:09;59.03;;;24.53;;
22378;SDS011;11357;49.990;7.370;2022-09-17T02:14:41;63.07;;;26.67;;
22378;SDS011;11357;49.990;7.370;2022-09-17T02:17:15;81.53;;;32.77;;
22378;SDS011;11357;49.990;7.370;2022-09-17T02:19:46;68.03;;;29.60;;
22378;SDS011;11357;49.990;7.370;2022-09-17T02:30:13;54.67;;;18.47;;
22378;SDS011;11357;49.990;7.370;2022-09-17T02:32:39;72.33;;;24.53;;
22378;SDS011;11357;49.990;7.370;2022-09-17T02:35:06;66.83;;;26.70;;
22378;SDS011;11357;49.990;7.370;2022-09-17T02:37:33;69.40;;;27.47;;
22378;SDS011;11357;49.990;7.370;2022-09-17T02:39:59;70.93;;;35.43;;
22378;SDS011;11357;49.990;7.370;2022-09-17T02:48:23;56.80;;;17.20;;
22378;SDS011;11357;49.990;7.370;2022-09-17T02:53:51;61.80;;;24.33;;
22378;SDS011;11357;49.990;7.370;2022-09-17T02:59:15;63.13;;;23.33;;
22378;SDS011;11357;49.990;7.370;2022-09-17T03:04:24;66.67;;;22.97;;
22378;SDS011;11357;49.990;7.370;2022-09-17T03:06:53;59.80;;;21.10;;
22378;SDS011;11357;49.990;7.370;2022-09-17T03:09:19;73.83;;;26.27;;
22378;SDS011;11357;49.990;7.370;2022-09-17T03:11:45;66.27;;;26.00;;
22378;SDS011;11357;49.990;7.370;2022-09-17T03:14:11;67.97;;;21.90;;
22378;SDS011;11357;49.990;7.370;2022-09-17T03:16:37;55.40;;;15.67;;
22378;SDS011;11357;49.990;7.370;2022-09-17T03:19:02;63.90;;;16.17;;
22378;SDS011;11357;49.990;7.370;2022-09-17T03:21:28;66.03;;;22.27;;
22378;SDS011;11357;49.990;7.370;2022-09-17T03:23:55;65.70;;;22.47;;
22378;SDS011;11357;49.990;7.370;2022-09-17T03:26:21;70.37;;;24.27;;
22378;SDS011;11357;49.990;7.370;2022-09-17T03:28:46;69.90;;;34.30;;
22378;SDS011;11357;49.990;7.370;2022-09-17T03:31:12;63.23;;;21.60;;
22378;SDS011;11357;49.990;7.370;2022-09-17T03:33:38;65.23;;;27.13;;
22378;SDS011;11357;49.990;7.370;2022-09-17T03:36:03;77.87;;;29.90;;
22378;SDS011;11357;49.990;7.370;2022-09-17T03:38:29;63.20;;;23.97;;
22378;SDS011;11357;49.990;7.370;2022-09-17T03:40:56;65.13;;;20.33;;
22378;SDS011;11357;49.990;7.370;2022-09-17T03:43:31;64.10;;;22.30;;
22378;SDS011;11357;49.990;7.370;2022-09-17T03:45:57;66.50;;;26.10;;
22378;SDS011;11357;49.990;7.370;2022-09-17T03:48:22;57.43;;;18.17;;
22378;SDS011;11357;49.990;7.370;2022-09-17T03:50:48;67.63;;;20.73;;
22378;SDS011;11357;49.990;7.370;2022-09-17T03:53:14;62.03;;;19.87;;
22378;SDS011;11357;49.990;7.370;2022-09-17T03:55:40;63.97;;;20.87;;
22378;SDS011;11357;49.990;7.370;2022-09-17T03:58:06;57.30;;;21.83;;
22378;SDS011;11357;49.990;7.370;2022-09-17T04:00:32;69.47;;;24.97;;
22378;SDS011;11357;49.990;7.370;2022-09-17T04:03:01;65.57;;;23.23;;
22378;SDS011;11357;49.990;7.370;2022-09-17T04:05:27;69.53;;;27.00;;
22378;SDS011;11357;49.990;7.370;2022-09-17T04:07:53;72.00;;;24.87;;
22378;SDS011;11357;49.990;7.370;2022-09-17T04:10:18;64.43;;;21.77;;
22378;SDS011;11357;49.990;7.370;2022-09-17T04:12:44;66.10;;;24.03;;
22378;SDS011;11357;49.990;7.370;2022-09-17T04:15:09;68.40;;;25.17;;
22378;SDS011;11357;49.990;7.370;2022-09-17T04:17:35;61.57;;;23.63;;
22378;SDS011;11357;49.990;7.370;2022-09-17T04:20:01;63.80;;;25.57;;
22378;SDS011;11357;49.990;7.370;2022-09-17T04:22:28;69.13;;;23.60;;
22378;SDS011;11357;49.990;7.370;2022-09-17T04:24:53;68.13;;;24.83;;
22378;SDS011;11357;49.990;7.370;2022-09-17T04:27:19;72.70;;;25.37;;
22378;SDS011;11357;49.990;7.370;2022-09-17T04:29:45;69.87;;;27.80;;
22378;SDS011;11357;49.990;7.370;2022-09-17T04:32:10;72.37;;;28.40;;
22378;SDS011;11357;49.990;7.370;2022-09-17T04:34:36;49.40;;;12.20;;
22378;SDS011;11357;49.990;7.370;2022-09-17T04:37:01;60.73;;;15.30;;
22378;SDS011;11357;49.990;7.370;2022-09-17T04:39:27;69.80;;;20.13;;
22378;SDS011;11357;49.990;7.370;2022-09-17T04:41:53;83.03;;;21.03;;
22378;SDS011;11357;49.990;7.370;2022-09-17T04:44:19;67.40;;;24.90;;
22378;SDS011;11357;49.990;7.370;2022-09-17T04:46:45;55.90;;;16.10;;
22378;SDS011;11357;49.990;7.370;2022-09-17T04:49:10;61.47;;;18.47;;
22378;SDS011;11357;49.990;7.370;2022-09-17T04:51:37;54.27;;;13.27;;
22378;SDS011;11357;49.990;7.370;2022-09-17T04:54:03;72.77;;;26.80;;
22378;SDS011;11357;49.990;7.370;2022-09-17T04:56:28;67.90;;;21.63;;
22378;SDS011;11357;49.990;7.370;2022-09-17T04:58:54;61.43;;;18.23;;
22378;SDS011;11357;49.990;7.370;2022-09-17T05:01:19;71.30;;;23.33;;
22378;SDS011;11357;49.990;7.370;2022-09-17T05:03:45;61.33;;;16.07;;
22378;SDS011;11357;49.990;7.370;2022-09-17T05:06:11;77.33;;;18.23;;
22378;SDS011;11357;49.990;7.370;2022-09-17T05:08:37;63.33;;;14.30;;
22378;SDS011;11357;49.990;7.370;2022-09-17T05:11:02;61.50;;;21.23;;
22378;SDS011;11357;49.990;7.370;2022-09-17T05:13:28;67.30;;;22.10;;
22378;SDS011;11357;49.990;7.370;2022-09-17T05:15:54;70.27;;;23.97;;
22378;SDS011;11357;49.990;7.370;2022-09-17T05:18:23;62.00;;;16.97;;
22378;SDS011;11357;49.990;7.370;2022-09-17T05:20:50;57.90;;;17.67;;
22378;SDS011;11357;49.990;7.370;2022-09-17T05:23:16;29.70;;;13.13;;
22378;SDS011;11357;49.990;7.370;2022-09-17T05:25:42;71.53;;;21.03;;
22378;SDS011;11357;49.990;7.370;2022-09-17T05:28:08;57.63;;;19.23;;
22378;SDS011;11357;49.990;7.370;2022-09-17T05:30:34;66.73;;;21.73;;
22378;SDS011;11357;49.990;7.370;2022-09-17T05:33:01;65.07;;;21.60;;
22378;SDS011;11357;49.990;7.370;2022-09-17T05:35:28;63.83;;;17.80;;
22378;SDS011;11357;49.990;7.370;2022-09-17T05:38:01;79.83;;;32.17;;
22378;SDS011;11357;49.990;7.370;2022-09-17T05:40:29;72.57;;;17.57;;
22378;SDS011;11357;49.990;7.370;2022-09-17T05:42:57;69.13;;;20.43;;
22378;SDS011;11357;49.990;7.370;2022-09-17T05:45:23;67.13;;;26.10;;
22378;SDS011;11357;49.990;7.370;2022-09-17T05:47:59;62.23;;;21.33;;
22378;SDS011;11357;49.990;7.370;2022-09-17T05:50:26;44.60;;;14.53;;
22378;SDS011;11357;49.990;7.370;2022-09-17T05:52:53;78.47;;;21.07;;
22378;SDS011;11357;49.990;7.370;2022-09-17T05:55:19;56.17;;;18.17;;
22378;SDS011;11357;49.990;7.370;2022-09-17T05:57:46;61.83;;;15.37;;
22378;SDS011;11357;49.990;7.370;2022-09-17T06:00:13;52.10;;;16.90;;
22378;SDS011;11357;49.990;7.370;2022-09-17T06:02:39;44.13;;;12.77;;
22378;SDS011;11357;49.990;7.370;2022-09-17T06:05:04;68.60;;;25.07;;
22378;SDS011;11357;49.990;7.370;2022-09-17T06:07:31;55.77;;;17.37;;
22378;SDS011;11357;49.990;7.370;2022-09-17T06:10:03;50.10;;;13.53;;
22378;SDS011;11357;49.990;7.370;2022-09-17T06:12:30;62.50;;;21.90;;
22378;SDS011;11357;49.990;7.370;2022-09-17T06:14:56;54.93;;;12.43;;
22378;SDS011;11357;49.990;7.370;2022-09-17T06:17:22;58.83;;;14.13;;
22378;SDS011;11357;49.990;7.370;2022-09-17T06:19:47;49.00;;;11.80;;
22378;SDS011;11357;49.990;7.370;2022-09-17T06:22:13;61.30;;;24.90;;
22378;SDS011;11357;49.990;7.370;2022-09-17T06:24:41;51.07;;;14.63;;
22378;SDS011;11357;49.990;7.370;2022-09-17T06:27:07;62.83;;;19.37;;
22378;SDS011;11357;49.990;7.370;2022-09-17T06:29:32;64.07;;;19.23;;
22378;SDS011;11357;49.990;7.370;2022-09-17T06:31:58;58.27;;;20.53;;
22378;SDS011;11357;49.990;7.370;2022-09-17T06:34:24;56.50;;;19.70;;
22378;SDS011;11357;49.990;7.370;2022-09-17T06:36:50;59.90;;;13.17;;
22378;SDS011;11357;49.990;7.370;2022-09-17T06:39:16;59.43;;;15.27;;
22378;SDS011;11357;49.990;7.370;2022-09-17T06:41:41;53.83;;;15.50;;
22378;SDS011;11357;49.990;7.370;2022-09-17T06:44:07;63.80;;;18.57;;
22378;SDS011;11357;49.990;7.370;2022-09-17T06:46:33;58.93;;;18.03;;
22378;SDS011;11357;49.990;7.370;2022-09-17T06:48:59;71.07;;;26.37;;
22378;SDS011;11357;49.990;7.370;2022-09-17T06:51:25;61.10;;;18.40;;
22378;SDS011;11357;49.990;7.370;2022-09-17T06:53:50;54.67;;;16.40;;
22378;SDS011;11357;49.990;7.370;2022-09-17T06:56:16;64.93;;;23.37;;
22378;SDS011;11357;49.990;7.370;2022-09-17T06:58:42;54.43;;;18.30;;
22378;SDS011;11357;49.990;7.370;2022-09-17T07:01:08;56.53;;;18.50;;
22378;SDS011;11357;49.990;7.370;2022-09-17T07:03:35;53.60;;;15.43;;
22378;SDS011;11357;49.990;7.370;2022-09-17T07:06:02;66.53;;;21.77;;
22378;SDS011;11357;49.990;7.370;2022-09-17T07:08:28;64.97;;;22.37;;
22378;SDS011;11357;49.990;7.370;2022-09-17T07:10:58;74.67;;;26.00;;
22378;SDS011;11357;49.990;7.370;2022-09-17T07:13:24;76.50;;;26.13;;
22378;SDS011;11357;49.990;7.370;2022-09-17T07:15:51;53.87;;;16.50;;
22378;SDS011;11357;49.990;7.370;2022-09-17T07:18:18;51.03;;;15.03;;
22378;SDS011;11357;49.990;7.370;2022-09-17T07:20:43;60.20;;;15.60;;
22378;SDS011;11357;49.990;7.370;2022-09-17T07:23:17;55.20;;;12.67;;
22378;SDS011;11357;49.990;7.370;2022-09-17T07:25:42;41.50;;;8.77;;
22378;SDS011;11357;49.990;7.370;2022-09-17T07:28:08;60.00;;;18.40;;
22378;SDS011;11357;49.990;7.370;2022-09-17T07:30:34;57.87;;;19.07;;
22378;SDS011;11357;49.990;7.370;2022-09-17T07:33:00;49.10;;;13.27;;
22378;SDS011;11357;49.990;7.370;2022-09-17T07:35:26;53.87;;;20.37;;
22378;SDS011;11357;49.990;7.370;2022-09-17T07:37:52;68.00;;;29.20;;
22378;SDS011;11357;49.990;7.370;2022-09-17T07:40:17;83.87;;;31.67;;
22378;SDS011;11357;49.990;7.370;2022-09-17T07:42:43;55.00;;;15.90;;
22378;SDS011;11357;49.990;7.370;2022-09-17T07:45:09;55.00;;;18.17;;
22378;SDS011;11357;49.990;7.370;2022-09-17T07:47:39;63.87;;;23.67;;
22378;SDS011;11357;49.990;7.370;2022-09-17T07:50:05;71.17;;;23.63;;
22378;SDS011;11357;49.990;7.370;2022-09-17T07:52:32;64.83;;;24.30;;
22378;SDS011;11357;49.990;7.370;2022-09-17T07:54:58;61.17;;;18.73;;
22378;SDS011;11357;49.990;7.370;2022-09-17T07:57:23;68.97;;;29.73;;
22378;SDS011;11357;49.990;7.370;2022-09-17T07:59:49;56.40;;;17.53;;
22378;SDS011;11357;49.990;7.370;2022-09-17T08:02:14;61.97;;;22.77;;
22378;SDS011;11357;49.990;7.370;2022-09-17T08:04:40;58.47;;;22.87;;
22378;SDS011;11357;49.990;7.370;2022-09-17T08:07:09;67.93;;;19.60;;
22378;SDS011;11357;49.990;7.370;2022-09-17T08:09:36;57.00;;;20.60;;
22378;SDS011;11357;49.990;7.370;2022-09-17T08:12:02;92.00;;;30.73;;
22378;SDS011;11357;49.990;7.370;2022-09-17T08:14:28;56.80;;;21.23;;
22378;SDS011;11357;49.990;7.370;2022-09-17T08:16:54;59.73;;;22.40;;
22378;SDS011;11357;49.990;7.370;2022-09-17T08:19:19;53.63;;;17.83;;
22378;SDS011;11357;49.990;7.370;2022-09-17T08:21:46;63.47;;;19.43;;
22378;SDS011;11357;49.990;7.370;2022-09-17T08:24:11;94.73;;;31.20;;
22378;SDS011;11357;49.990;7.370;2022-09-17T08:26:37;64.07;;;25.13;;
22378;SDS011;11357;49.990;7.370;2022-09-17T08:29:04;105.57;;;45.23;;
22378;SDS011;11357;49.990;7.370;2022-09-17T08:31:31;72.90;;;39.33;;
22378;SDS011;11357;49.990;7.370;2022-09-17T08:33:57;61.43;;;22.23;;
22378;SDS011;11357;49.990;7.370;2022-09-17T08:36:23;55.67;;;16.73;;
22378;SDS011;11357;49.990;7.370;2022-09-17T08:38:53;94.13;;;48.13;;
22378;SDS011;11357;49.990;7.370;2022-09-17T08:42:06;69.53;;;27.67;;
22378;SDS011;11357;49.990;7.370;2022-09-17T08:44:37;84.23;;;35.17;;
22378;SDS011;11357;49.990;7.370;2022-09-17T08:49:55;65.80;;;29.10;;
22378;SDS011;11357;49.990;7.370;2022-09-17T09:00:55;92.07;;;48.90;;
22378;SDS011;11357;49.990;7.370;2022-09-17T09:06:03;177.60;;;119.00;;
22378;SDS011;11357;49.990;7.370;2022-09-17T09:11:00;78.27;;;36.10;;
22378;SDS011;11357;49.990;7.370;2022-09-17T09:13:42;67.13;;;27.53;;
22378;SDS011;11357;49.990;7.370;2022-09-17T09:16:16;215.20;;;163.50;;
22378;SDS011;11357;49.990;7.370;2022-09-17T09:18:49;114.07;;;71.03;;
22378;SDS011;11357;49.990;7.370;2022-09-17T09:26:21;111.17;;;60.37;;
22378;SDS011;11357;49.990;7.370;2022-09-17T09:33:53;444.97;;;400.30;;
22378;SDS011;11357;49.990;7.370;2022-09-17T09:36:20;1383.47;;;917.27;;
22378;SDS011;11357;49.990;7.370;2022-09-17T09:39:02;1046.53;;;756.23;;
22378;SDS011;11357;49.990;7.370;2022-09-17T09:41:33;628.27;;;481.00;;
22378;SDS011;11357;49.990;7.370;2022-09-17T09:44:02;226.53;;;152.10;;
22378;SDS011;11357;49.990;7.370;2022-09-17T09:46:39;434.47;;;390.07;;
22378;SDS011;11357;49.990;7.370;2022-09-17T09:58:30;790.03;;;710.13;;
22378;SDS011;11357;49.990;7.370;2022-09-17T10:01:21;933.63;;;831.73;;
22378;SDS011;11357;49.990;7.370;2022-09-17T10:03:51;1281.00;;;945.97;;
22378;SDS011;11357;49.990;7.370;2022-09-17T10:06:18;600.93;;;533.70;;
22378;SDS011;11357;49.990;7.370;2022-09-17T10:11:28;1999.90;;;999.90;;
22378;SDS011;11357;49.990;7.370;2022-09-17T10:16:49;1888.70;;;993.13;;
22378;SDS011;11357;49.990;7.370;2022-09-17T10:19:36;1895.30;;;999.90;;
22378;SDS011;11357;49.990;7.370;2022-09-17T10:22:16;1999.90;;;674.70;;
22378;SDS011;11357;49.990;7.370;2022-09-17T10:24:43;1999.90;;;571.23;;
22378;SDS011;11357;49.990;7.370;2022-09-17T10:27:16;1633.07;;;937.07;;
22378;SDS011;11357;49.990;7.370;2022-09-17T10:29:43;1928.37;;;999.90;;
22378;SDS011;11357;49.990;7.370;2022-09-17T10:32:15;827.20;;;689.27;;
22378;SDS011;11357;49.990;7.370;2022-09-17T10:37:51;1999.90;;;999.90;;
22378;SDS011;11357;49.990;7.370;2022-09-17T10:42:46;1999.90;;;999.90;;
22378;SDS011;11357;49.990;7.370;2022-09-17T10:47:53;1999.90;;;829.60;;
22378;SDS011;11357;49.990;7.370;2022-09-17T10:50:26;1999.90;;;889.73;;
22378;SDS011;11357;49.990;7.370;2022-09-17T10:52:54;1999.63;;;844.27;;
22378;SDS011;11357;49.990;7.370;2022-09-17T10:55:28;1742.23;;;978.33;;
22378;SDS011;11357;49.990;7.370;2022-09-17T11:06:44;979.13;;;755.87;;
22378;SDS011;11357;49.990;7.370;2022-09-17T11:09:40;1435.93;;;999.90;;
22378;SDS011;11357;49.990;7.370;2022-09-17T11:12:35;1999.90;;;999.90;;
22378;SDS011;11357;49.990;7.370;2022-09-17T11:35:02;1999.90;;;999.90;;
22378;SDS011;11357;49.990;7.370;2022-09-17T11:37:39;1999.90;;;999.90;;
22378;SDS011;11357;49.990;7.370;2022-09-17T11:40:21;1999.90;;;593.10;;
22378;SDS011;11357;49.990;7.370;2022-09-17T11:42:55;1999.90;;;999.90;;
22378;SDS011;11357;49.990;7.370;2022-09-17T11:45:27;1999.90;;;999.90;;
22378;SDS011;11357;49.990;7.370;2022-09-17T11:50:51;1999.90;;;624.33;;
22378;SDS011;11357;49.990;7.370;2022-09-17T11:56:25;1999.90;;;999.90;;
22378;SDS011;11357;49.990;7.370;2022-09-17T11:59:09;759.90;;;680.37;;
22378;SDS011;11357;49.990;7.370;2022-09-17T12:02:02;620.23;;;554.57;;
22378;SDS011;11357;49.990;7.370;2022-09-17T12:09:47;482.37;;;386.37;;
22378;SDS011;11357;49.990;7.370;2022-09-17T12:12:21;1524.43;;;857.53;;
22378;SDS011;11357;49.990;7.370;2022-09-17T12:20:33;1999.90;;;586.00;;
22378;SDS011;11357;49.990;7.370;2022-09-17T12:23:02;1999.90;;;998.47;;
22378;SDS011;11357;49.990;7.370;2022-09-17T12:25:33;1999.90;;;912.20;;
22378;SDS011;11357;49.990;7.370;2022-09-17T12:28:08;1652.57;;;405.60;;
22378;SDS011;11357;49.990;7.370;2022-09-17T12:30:55;1920.05;;;843.80;;
22378;SDS011;11357;49.990;7.370;2022-09-17T12:33:36;1999.90;;;999.90;;
22378;SDS011;11357;49.990;7.370;2022-09-17T12:47:12;1999.90;;;947.73;;
22378;SDS011;11357;49.990;7.370;2022-09-17T13:00:24;1999.90;;;951.60;;
22378;SDS011;11357;49.990;7.370;2022-09-17T13:05:26;419.35;;;389.35;;
22378;SDS011;11357;49.990;7.370;2022-09-17T13:10:50;1999.90;;;999.90;;
22378;SDS011;11357;49.990;7.370;2022-09-17T13:19:06;550.67;;;502.15;;
22378;SDS011;11357;49.990;7.370;2022-09-17T13:21:52;1815.82;;;809.97;;
22378;SDS011;11357;49.990;7.370;2022-09-17T13:24:20;1916.20;;;878.55;;
22378;SDS011;11357;49.990;7.370;2022-09-17T13:26:53;1932.97;;;856.15;;
22378;SDS011;11357;49.990;7.370;2022-09-17T13:29:56;1370.10;;;353.80;;
22378;SDS011;11357;49.990;7.370;2022-09-17T13:40:31;261.30;;;193.83;;
22378;SDS011;11357;49.990;7.370;2022-09-17T13:45:32;284.50;;;161.52;;
22378;SDS011;11357;49.990;7.370;2022-09-17T13:48:15;241.20;;;169.80;;
22378;SDS011;11357;49.990;7.370;2022-09-17T13:50:48;293.57;;;228.47;;
22378;SDS011;11357;49.990;7.370;2022-09-17T14:11:55;1042.47;;;643.13;;
22378;SDS011;11357;49.990;7.370;2022-09-17T14:35:48;373.00;;;288.57;;
22378;SDS011;11357;49.990;7.370;2022-09-17T14:38:20;126.67;;;98.10;;
22378;SDS011;11357;49.990;7.370;2022-09-17T14:43:54;101.37;;;61.97;;
22378;SDS011;11357;49.990;7.370;2022-09-17T14:46:38;96.57;;;58.40;;
22378;SDS011;11357;49.990;7.370;2022-09-17T14:49:24;105.27;;;69.17;;
22378;SDS011;11357;49.990;7.370;2022-09-17T14:51:56;112.67;;;63.63;;
22378;SDS011;11357;49.990;7.370;2022-09-17T14:54:29;103.77;;;57.13;;
22378;SDS011;11357;49.990;7.370;2022-09-17T15:04:56;217.80;;;171.17;;
22378;SDS011;11357;49.990;7.370;2022-09-17T15:07:23;178.77;;;123.40;;
22378;SDS011;11357;49.990;7.370;2022-09-17T15:09:49;106.67;;;70.93;;
22378;SDS011;11357;49.990;7.370;2022-09-17T15:12:19;100.53;;;58.03;;
22378;SDS011;11357;49.990;7.370;2022-09-17T15:14:50;85.57;;;56.70;;
22378;SDS011;11357;49.990;7.370;2022-09-17T15:17:17;135.60;;;78.37;;
22378;SDS011;11357;49.990;7.370;2022-09-17T15:19:47;50.40;;;29.70;;
22378;SDS011;11357;49.990;7.370;2022-09-17T15:22:16;86.57;;;40.43;;
22378;SDS011;11357;49.990;7.370;2022-09-17T15:24:55;76.57;;;39.57;;
22378;SDS011;11357;49.990;7.370;2022-09-17T15:27:35;152.20;;;54.23;;
22378;SDS011;11357;49.990;7.370;2022-09-17T15:30:17;55.27;;;20.77;;
22378;SDS011;11357;49.990;7.370;2022-09-17T15:33:02;73.13;;;36.67;;
22378;SDS011;11357;49.990;7.370;2022-09-17T15:35:29;79.70;;;48.63;;
22378;SDS011;11357;49.990;7.370;2022-09-17T15:37:57;63.13;;;31.73;;
22378;SDS011;11357;49.990;7.370;2022-09-17T15:40:28;63.67;;;17.50;;
22378;SDS011;11357;49.990;7.370;2022-09-17T15:43:20;68.17;;;27.20;;
22378;SDS011;11357;49.990;7.370;2022-09-17T15:45:51;52.20;;;20.97;;
22378;SDS011;11357;49.990;7.370;2022-09-17T15:50:54;63.87;;;28.23;;
22378;SDS011;11357;49.990;7.370;2022-09-17T15:53:31;34.37;;;7.63;;
22378;SDS011;11357;49.990;7.370;2022-09-17T16:08:42;26.30;;;14.43;;
22378;SDS011;11357;49.990;7.370;2022-09-17T16:11:08;44.67;;;12.83;;
22378;SDS011;11357;49.990;7.370;2022-09-17T16:13:33;53.47;;;17.50;;
22378;SDS011;11357;49.990;7.370;2022-09-17T16:15:59;57.47;;;16.87;;
22378;SDS011;11357;49.990;7.370;2022-09-17T16:18:25;55.73;;;19.33;;
22378;SDS011;11357;49.990;7.370;2022-09-17T16:20:51;42.83;;;10.80;;
22378;SDS011;11357;49.990;7.370;2022-09-17T16:23:17;39.47;;;13.17;;
22378;SDS011;11357;49.990;7.370;2022-09-17T16:25:42;15.07;;;10.63;;
22378;SDS011;11357;49.990;7.370;2022-09-17T16:28:09;9.93;;;4.93;;
22378;SDS011;11357;49.990;7.370;2022-09-17T16:30:42;53.37;;;15.80;;
22378;SDS011;11357;49.990;7.370;2022-09-17T16:33:10;72.17;;;41.20;;
22378;SDS011;11357;49.990;7.370;2022-09-17T16:35:36;53.43;;;23.40;;
22378;SDS011;11357;49.990;7.370;2022-09-17T16:38:03;44.53;;;15.43;;
22378;SDS011;11357;49.990;7.370;2022-09-17T16:40:28;35.30;;;21.77;;
22378;SDS011;11357;49.990;7.370;2022-09-17T16:42:55;16.27;;;9.67;;
22378;SDS011;11357;49.990;7.370;2022-09-17T16:45:25;65.60;;;30.87;;
22378;SDS011;11357;49.990;7.370;2022-09-17T16:47:50;117.47;;;47.80;;
22378;SDS011;11357;49.990;7.370;2022-09-17T16:50:16;54.90;;;18.13;;
22378;SDS011;11357;49.990;7.370;2022-09-17T16:52:42;72.30;;;27.93;;
22378;SDS011;11357;49.990;7.370;2022-09-17T16:55:10;60.53;;;19.23;;
22378;SDS011;11357;49.990;7.370;2022-09-17T16:57:37;60.70;;;23.20;;
22378;SDS011;11357;49.990;7.370;2022-09-17T17:00:04;57.83;;;22.13;;
22378;SDS011;11357;49.990;7.370;2022-09-17T17:02:34;65.00;;;26.03;;
22378;SDS011;11357;49.990;7.370;2022-09-17T17:05:00;59.57;;;23.50;;
22378;SDS011;11357;49.990;7.370;2022-09-17T17:07:26;58.70;;;24.10;;
22378;SDS011;11357;49.990;7.370;2022-09-17T17:09:51;64.90;;;28.90;;
22378;SDS011;11357;49.990;7.370;2022-09-17T17:12:17;67.40;;;24.60;;
22378;SDS011;11357;49.990;7.370;2022-09-17T17:14:43;55.17;;;18.87;;
22378;SDS011;11357;49.990;7.370;2022-09-17T17:17:14;72.73;;;27.17;;
22378;SDS011;11357;49.990;7.370;2022-09-17T17:19:40;60.53;;;22.77;;
22378;SDS011;11357;49.990;7.370;2022-09-17T17:22:06;73.83;;;31.70;;
22378;SDS011;11357;49.990;7.370;2022-09-17T17:24:32;57.10;;;20.80;;
22378;SDS011;11357;49.990;7.370;2022-09-17T17:26:58;56.17;;;22.77;;
22378;SDS011;11357;49.990;7.370;2022-09-17T17:29:24;60.00;;;24.97;;
22378;SDS011;11357;49.990;7.370;2022-09-17T17:31:49;63.43;;;25.33;;
22378;SDS011;11357;49.990;7.370;2022-09-17T17:34:15;50.10;;;21.67;;
22378;SDS011;11357;49.990;7.370;2022-09-17T17:36:41;51.53;;;18.63;;
22378;SDS011;11357;49.990;7.370;2022-09-17T17:39:07;55.63;;;25.77;;
22378;SDS011;11357;49.990;7.370;2022-09-17T17:41:33;53.43;;;18.20;;
22378;SDS011;11357;49.990;7.370;2022-09-17T17:43:59;48.93;;;17.57;;
22378;SDS011;11357;49.990;7.370;2022-09-17T17:46:25;18.20;;;11.50;;
22378;SDS011;11357;49.990;7.370;2022-09-17T17:48:51;16.83;;;9.20;;
22378;SDS011;11357;49.990;7.370;2022-09-17T17:51:17;56.53;;;19.23;;
22378;SDS011;11357;49.990;7.370;2022-09-17T17:53:43;48.07;;;14.93;;
22378;SDS011;11357;49.990;7.370;2022-09-17T17:56:10;63.57;;;28.13;;
22378;SDS011;11357;49.990;7.370;2022-09-17T17:58:36;80.87;;;25.20;;
22378;SDS011;11357;49.990;7.370;2022-09-17T18:01:09;63.23;;;21.47;;
22378;SDS011;11357;49.990;7.370;2022-09-17T18:03:40;54.30;;;18.50;;
22378;SDS011;11357;49.990;7.370;2022-09-17T18:06:05;67.37;;;24.23;;
22378;SDS011;11357;49.990;7.370;2022-09-17T18:08:33;57.07;;;20.30;;
22378;SDS011;11357;49.990;7.370;2022-09-17T18:11:04;54.67;;;14.40;;
22378;SDS011;11357;49.990;7.370;2022-09-17T18:13:32;59.10;;;20.07;;
22378;SDS011;11357;49.990;7.370;2022-09-17T18:15:59;56.90;;;19.53;;
22378;SDS011;11357;49.990;7.370;2022-09-17T18:18:29;56.03;;;15.93;;
22378;SDS011;11357;49.990;7.370;2022-09-17T18:21:22;61.03;;;19.93;;
22378;SDS011;11357;49.990;7.370;2022-09-17T18:23:49;67.20;;;23.03;;
22378;SDS011;11357;49.990;7.370;2022-09-17T18:26:16;68.17;;;24.43;;
22378;SDS011;11357;49.990;7.370;2022-09-17T18:28:45;60.13;;;24.97;;
22378;SDS011;11357;49.990;7.370;2022-09-17T18:31:27;67.60;;;25.13;;
22378;SDS011;11357;49.990;7.370;2022-09-17T18:33:59;63.53;;;27.67;;
22378;SDS011;11357;49.990;7.370;2022-09-17T18:36:26;71.57;;;30.07;;
22378;SDS011;11357;49.990;7.370;2022-09-17T18:38:55;56.43;;;16.90;;
22378;SDS011;11357;49.990;7.370;2022-09-17T18:41:25;53.80;;;17.37;;
22378;SDS011;11357;49.990;7.370;2022-09-17T18:43:52;56.93;;;23.63;;